createdAt,value
2023-05-21T00:02:38.061Z,34.80
2023-05-21T00:06:46.256Z,33.60
2023-05-21T00:10:54.064Z,33.10
2023-05-21T00:15:05.763Z,34.40
2023-05-21T00:19:15.984Z,39.80
2023-05-21T00:23:23.631Z,38.60
2023-05-21T00:27:32.194Z,35.50
2023-05-21T00:31:40.606Z,41.10
2023-05-21T00:35:49.297Z,36.30
2023-05-21T00:39:58.283Z,35.70
2023-05-21T00:44:06.199Z,38.40
2023-05-21T00:48:15.489Z,35.20
2023-05-21T00:52:23.518Z,37.80
2023-05-21T00:56:31.221Z,36.80
2023-05-21T01:00:40.879Z,32.40
2023-05-21T01:04:49.303Z,30.00
2023-05-21T01:08:57.494Z,29.00
2023-05-21T01:13:05.452Z,25.50
2023-05-21T01:17:13.995Z,28.90
2023-05-21T01:21:23.468Z,27.30
2023-05-21T01:25:31.602Z,24.30
2023-05-21T01:29:39.449Z,24.90
2023-05-21T01:33:50.773Z,22.10
2023-05-21T01:38:04.902Z,24.40
2023-05-21T01:42:14.122Z,25.30
2023-05-21T01:46:26.073Z,26.80
2023-05-21T01:50:34.088Z,27.80
2023-05-21T01:54:41.881Z,22.10
2023-05-21T01:58:50.536Z,24.80
2023-05-21T02:02:58.956Z,25.50
2023-05-21T02:07:09.705Z,21.90
2023-05-21T02:11:21.315Z,22.10
2023-05-21T02:15:29.507Z,22.90
2023-05-21T02:19:37.309Z,24.40
2023-05-21T02:23:44.892Z,23.50
2023-05-21T02:27:54.245Z,22.60
2023-05-21T02:32:02.694Z,23.70
2023-05-21T02:36:13.359Z,22.70
2023-05-21T02:40:25.481Z,23.80
2023-05-21T02:44:33.013Z,24.10
2023-05-21T02:48:40.896Z,21.50
2023-05-21T02:52:48.947Z,22.40
2023-05-21T02:56:57.332Z,21.80
2023-05-21T03:01:05.103Z,23.80
2023-05-21T03:05:12.777Z,22.30
2023-05-21T03:09:21.775Z,23.40
2023-05-21T03:13:30.211Z,21.20
2023-05-21T03:17:37.875Z,19.40
2023-05-21T03:21:49.309Z,22.00
2023-05-21T03:25:57.215Z,22.50
2023-05-21T03:30:06.836Z,21.00
2023-05-21T03:34:14.960Z,21.50
2023-05-21T03:38:23.020Z,19.10
2023-05-21T03:42:32.740Z,21.50
2023-05-21T03:46:40.671Z,21.00
2023-05-21T03:50:48.500Z,25.00
2023-05-21T03:54:55.850Z,20.00
2023-05-21T03:59:03.772Z,22.20
2023-05-21T04:03:12.145Z,20.10
2023-05-21T04:07:20.340Z,20.20
2023-05-21T04:11:28.455Z,19.90
2023-05-21T04:15:36.306Z,19.80
2023-05-21T04:19:45.383Z,22.00
2023-05-21T04:23:54.245Z,18.60
2023-05-21T04:28:03.369Z,17.20
2023-05-21T04:32:11.814Z,20.80
2023-05-21T04:36:20.474Z,23.70
2023-05-21T04:40:28.304Z,20.90
2023-05-21T04:44:36.356Z,17.40
2023-05-21T04:48:45.370Z,19.00
2023-05-21T04:52:54.830Z,18.90
2023-05-21T04:57:03.036Z,19.20
2023-05-21T05:01:10.847Z,18.60
2023-05-21T05:05:19.289Z,18.80
2023-05-21T05:09:27.436Z,18.40
2023-05-21T05:13:37.329Z,18.70
2023-05-21T05:17:48.558Z,19.40
2023-05-21T05:21:57.004Z,20.30
2023-05-21T05:26:04.987Z,19.70
2023-05-21T05:30:14.490Z,17.30
2023-05-21T05:34:22.674Z,16.40
2023-05-21T05:38:30.595Z,20.00
2023-05-21T05:42:38.684Z,18.20
2023-05-21T05:46:46.866Z,17.90
2023-05-21T05:50:57.828Z,18.00
2023-05-21T05:55:10.238Z,16.30
2023-05-21T05:59:18.461Z,15.90
2023-05-21T06:03:28.534Z,18.40
2023-05-21T06:07:37.529Z,18.40
2023-05-21T06:11:45.142Z,17.50
2023-05-21T06:15:54.001Z,21.60
2023-05-21T06:20:01.606Z,17.20
2023-05-21T06:24:11.813Z,17.20
2023-05-21T06:28:21.624Z,21.00
2023-05-21T06:32:29.540Z,17.80
2023-05-21T06:36:37.785Z,19.20
2023-05-21T06:40:47.635Z,18.80
2023-05-21T06:44:55.592Z,16.40
2023-05-21T06:49:03.526Z,16.80
2023-05-21T06:53:11.711Z,17.30
2023-05-21T06:57:20.010Z,18.10
2023-05-21T07:01:28.909Z,17.80
2023-05-21T07:05:37.306Z,18.10
2023-05-21T07:09:45.640Z,17.90
2023-05-21T07:13:59.028Z,17.50
2023-05-21T07:18:07.095Z,18.30
2023-05-21T07:22:14.857Z,17.40
2023-05-21T07:26:22.852Z,17.30
2023-05-21T07:30:33.126Z,17.60
2023-05-21T07:34:40.877Z,17.80
2023-05-21T07:38:48.624Z,18.60
2023-05-21T07:42:57.231Z,15.30
2023-05-21T07:47:05.258Z,16.80
2023-05-21T07:51:14.076Z,17.60
2023-05-21T07:55:21.420Z,16.80
2023-05-21T07:59:29.621Z,16.40
2023-05-21T08:03:38.133Z,17.90
2023-05-21T08:07:46.608Z,15.90
2023-05-21T08:11:55.797Z,16.90
2023-05-21T08:16:03.764Z,14.90
2023-05-21T08:20:14.663Z,17.40
2023-05-21T08:24:22.917Z,19.80
2023-05-21T08:28:31.620Z,15.80
2023-05-21T08:32:39.742Z,15.80
2023-05-21T08:36:50.798Z,18.00
2023-05-21T08:40:59.165Z,15.00
2023-05-21T08:45:09.209Z,15.00
2023-05-21T08:49:19.373Z,15.30
2023-05-21T08:53:28.960Z,16.70
2023-05-21T08:57:38.148Z,13.90
2023-05-21T09:01:47.114Z,15.50
2023-05-21T09:05:56.466Z,15.30
2023-05-21T09:10:10.723Z,15.70
2023-05-21T09:14:20.141Z,12.70
2023-05-21T09:18:28.204Z,13.00
2023-05-21T09:22:36.273Z,14.00
2023-05-21T09:26:45.808Z,11.50
2023-05-21T09:30:55.710Z,17.60
2023-05-21T09:35:10.453Z,10.10
2023-05-21T09:39:31.008Z,12.40
2023-05-21T09:43:39.860Z,12.60
2023-05-21T09:47:49.600Z,13.30
2023-05-21T09:51:59.920Z,12.10
2023-05-21T09:56:09.636Z,10.90
2023-05-21T10:00:24.845Z,11.10
2023-05-21T10:04:33.562Z,12.10
2023-05-21T10:08:45.876Z,10.20
2023-05-21T10:12:59.099Z,10.40
2023-05-21T10:17:10.049Z,8.80
2023-05-21T10:21:18.385Z,10.70
2023-05-21T10:25:26.722Z,11.60
2023-05-21T10:29:34.757Z,10.40
2023-05-21T10:33:42.366Z,9.00
2023-05-21T10:37:49.744Z,9.30
2023-05-21T10:42:06.097Z,9.30
2023-05-21T10:46:36.867Z,9.50
2023-05-21T10:51:07.010Z,9.50
2023-05-21T10:55:24.710Z,9.30
2023-05-21T10:59:41.637Z,10.10
2023-05-21T11:03:49.915Z,8.90
2023-05-21T11:08:04.833Z,8.70
2023-05-21T11:12:13.141Z,9.50
2023-05-21T11:16:23.285Z,12.10
2023-05-21T11:20:37.131Z,10.00
2023-05-21T11:24:46.180Z,9.00
2023-05-21T11:29:09.803Z,11.70
2023-05-21T11:33:23.330Z,9.10
2023-05-21T11:37:41.951Z,9.50
2023-05-21T11:41:58.868Z,8.00
2023-05-21T11:46:07.727Z,9.80
2023-05-21T11:50:18.342Z,8.50
2023-05-21T11:54:27.885Z,8.80
2023-05-21T11:58:35.728Z,8.70
2023-05-21T12:02:47.755Z,8.30
2023-05-21T12:06:55.458Z,11.70
2023-05-21T12:11:03.676Z,9.20
2023-05-21T12:15:15.032Z,10.00
2023-05-21T12:19:22.974Z,8.00
2023-05-21T12:23:31.932Z,9.30
2023-05-21T12:27:40.032Z,8.80
2023-05-21T12:31:52.567Z,10.30
2023-05-21T12:36:01.131Z,8.00
2023-05-21T12:40:12.526Z,7.80
2023-05-21T12:44:22.451Z,7.30
2023-05-21T12:48:30.686Z,8.60
2023-05-21T12:52:38.427Z,8.00
2023-05-21T12:56:49.664Z,10.60
2023-05-21T13:00:59.440Z,8.60
2023-05-21T13:05:09.285Z,8.30
2023-05-21T13:09:17.190Z,8.10
2023-05-21T13:13:24.427Z,8.30
2023-05-21T13:17:32.240Z,10.60
2023-05-21T13:21:40.120Z,7.90
2023-05-21T13:25:48.008Z,8.90
2023-05-21T13:29:55.633Z,8.80
2023-05-21T13:34:05.563Z,8.70
2023-05-21T13:38:13.280Z,7.50
2023-05-21T13:42:21.703Z,8.30
2023-05-21T13:46:29.713Z,9.10
2023-05-21T13:50:38.511Z,7.90
2023-05-21T13:54:49.796Z,8.10
2023-05-21T13:58:57.436Z,8.30
2023-05-21T14:03:06.862Z,9.10
2023-05-21T14:07:14.832Z,7.80
2023-05-21T14:11:23.161Z,8.40
2023-05-21T14:15:32.439Z,7.90
2023-05-21T14:19:39.963Z,7.90
2023-05-21T14:23:48.455Z,9.30
2023-05-21T14:27:56.239Z,8.10
2023-05-21T14:32:04.330Z,8.10
2023-05-21T14:36:12.411Z,7.50
2023-05-21T14:40:20.319Z,7.40
2023-05-21T14:44:30.118Z,7.90
2023-05-21T14:48:38.572Z,8.80
2023-05-21T14:52:46.458Z,8.50
2023-05-21T14:56:54.510Z,7.60
2023-05-21T15:01:04.473Z,8.70
2023-05-21T15:05:12.883Z,8.60
2023-05-21T15:09:20.602Z,8.80
2023-05-21T15:13:28.885Z,8.10
2023-05-21T15:17:37.821Z,10.80
2023-05-21T15:21:46.264Z,7.70
2023-05-21T15:25:55.690Z,8.40
2023-05-21T15:30:03.975Z,8.70
2023-05-21T15:34:14.738Z,10.20
2023-05-21T15:38:22.680Z,8.50
2023-05-21T15:42:32.053Z,12.30
2023-05-21T15:46:39.729Z,9.30
2023-05-21T15:50:47.365Z,7.50
2023-05-21T15:54:55.102Z,9.60
2023-05-21T15:59:03.980Z,7.40
2023-05-21T16:03:14.197Z,9.10
2023-05-21T16:07:24.221Z,11.70
2023-05-21T16:11:31.835Z,8.80
2023-05-21T16:15:39.411Z,8.40
2023-05-21T16:19:47.825Z,6.70
2023-05-21T16:23:55.983Z,8.90
2023-05-21T16:28:05.747Z,9.20
2023-05-21T16:32:14.312Z,7.90
2023-05-21T16:36:22.858Z,8.50
2023-05-21T16:40:31.981Z,11.40
2023-05-21T16:44:39.629Z,9.20
2023-05-21T16:48:47.580Z,10.30
2023-05-21T16:52:55.803Z,9.00
2023-05-21T16:57:05.517Z,7.20
2023-05-21T17:01:13.283Z,7.20
2023-05-21T17:05:21.573Z,8.80
2023-05-21T17:09:29.792Z,8.70
2023-05-21T17:13:37.459Z,7.80
2023-05-21T17:17:45.116Z,7.60
2023-05-21T17:21:53.034Z,8.70
2023-05-21T17:26:01.780Z,7.10
2023-05-21T17:30:16.150Z,8.50
2023-05-21T17:34:26.335Z,7.30
2023-05-21T17:38:33.784Z,10.90
2023-05-21T17:42:41.955Z,7.90
2023-05-21T17:46:50.244Z,13.30
2023-05-21T17:50:58.771Z,8.90
2023-05-21T17:55:07.951Z,9.90
2023-05-21T17:59:16.056Z,8.50
2023-05-21T18:03:24.222Z,8.10
2023-05-21T18:07:33.417Z,7.50
2023-05-21T18:11:42.886Z,8.70
2023-05-21T18:15:50.516Z,8.10
2023-05-21T18:19:58.285Z,8.20
2023-05-21T18:24:09.863Z,7.50
2023-05-21T18:28:17.730Z,8.10
2023-05-21T18:32:25.584Z,8.10
2023-05-21T18:36:39.029Z,7.50
2023-05-21T18:40:46.995Z,9.30
2023-05-21T18:44:55.166Z,7.50
2023-05-21T18:49:03.183Z,9.30
2023-05-21T18:53:11.802Z,7.40
2023-05-21T18:57:19.500Z,8.60
2023-05-21T19:01:27.587Z,8.70
2023-05-21T19:05:35.406Z,8.70
2023-05-21T19:09:43.416Z,9.80
2023-05-21T19:13:51.730Z,11.50
2023-05-21T19:18:01.216Z,8.80
2023-05-21T19:22:11.352Z,8.70
2023-05-21T19:26:19.339Z,8.80
2023-05-21T19:30:27.100Z,8.30
2023-05-21T19:34:35.441Z,7.40
2023-05-21T19:38:50.362Z,8.90
2023-05-21T19:42:58.762Z,7.70
2023-05-21T19:47:08.138Z,9.00
2023-05-21T19:51:16.330Z,11.40
2023-05-21T19:55:25.086Z,9.70
2023-05-21T19:59:33.596Z,9.50
2023-05-21T20:03:43.192Z,7.20
2023-05-21T20:07:52.193Z,7.90
2023-05-21T20:12:02.155Z,8.90
2023-05-21T20:16:12.882Z,9.30
2023-05-21T20:20:23.091Z,9.50
2023-05-21T20:24:31.300Z,11.30
2023-05-21T20:28:39.337Z,8.90
2023-05-21T20:32:47.518Z,9.10
2023-05-21T20:36:58.295Z,8.20
2023-05-21T20:41:06.280Z,9.80
2023-05-21T20:45:17.372Z,8.00
2023-05-21T20:49:26.190Z,8.70
2023-05-21T20:53:34.184Z,9.30
2023-05-21T20:57:42.495Z,9.60
2023-05-21T21:01:50.775Z,8.60
2023-05-21T21:06:01.316Z,10.20
2023-05-21T21:10:11.030Z,8.00
2023-05-21T21:14:19.014Z,10.40
2023-05-21T21:18:26.616Z,11.20
2023-05-21T21:22:34.133Z,8.60
2023-05-21T21:26:41.637Z,8.30
2023-05-21T21:30:50.804Z,9.70
2023-05-21T21:34:58.246Z,11.60
2023-05-21T21:39:06.187Z,8.60
2023-05-21T21:43:15.326Z,9.50
2023-05-21T21:47:23.483Z,9.40
2023-05-21T21:51:32.050Z,10.50
2023-05-21T21:55:40.125Z,8.80
2023-05-21T21:59:51.777Z,11.30
2023-05-21T22:03:59.834Z,11.30
2023-05-21T22:08:07.883Z,9.70
2023-05-21T22:12:19.344Z,8.60
2023-05-21T22:16:28.342Z,8.90
2023-05-21T22:20:36.412Z,9.50
2023-05-21T22:24:44.533Z,10.60
2023-05-21T22:28:54.932Z,9.00
2023-05-21T22:33:02.964Z,10.40
2023-05-21T22:37:11.298Z,10.70
2023-05-21T22:41:20.971Z,9.50
2023-05-21T22:45:29.240Z,11.40
2023-05-21T22:49:38.325Z,9.80
2023-05-21T22:53:46.935Z,10.00
2023-05-21T22:57:55.063Z,10.60
2023-05-21T23:02:03.668Z,9.90
2023-05-21T23:06:11.605Z,11.00
2023-05-21T23:10:19.540Z,10.40
2023-05-21T23:14:27.253Z,8.90
2023-05-21T23:18:35.125Z,10.80
2023-05-21T23:22:43.012Z,9.00
2023-05-21T23:26:51.188Z,9.60
2023-05-21T23:30:58.754Z,11.00
2023-05-21T23:35:07.856Z,12.40
2023-05-21T23:39:15.909Z,12.20
2023-05-21T23:43:24.542Z,13.70
2023-05-21T23:47:32.520Z,10.00
2023-05-21T23:51:40.357Z,9.50
2023-05-21T23:55:50.985Z,10.50
2023-05-21T23:59:58.480Z,9.30
